Time;durP1;ratioP1;P1;durP2;ratioP2;P2;SDS_P1;SDS_P2;PMS_P1;PMS_P2;Temp;Humidity;BMP_temperature;BMP_pressure;BME280_temperature;BME280_humidity;BME280_pressure;Samples;Min_cycle;Max_cycle;Signal;HPM_P1;HPM_P2
2022/11/21 01:00:46;;;;;;;15.50;8.55;;;0.30;99.90;;;;;;6282709;22;20629;-94
2022/11/21 01:03:17;;;;;;;17.33;8.82;;;0.30;99.90;;;;;;6212447;23;20114;-94
2022/11/21 01:05:43;;;;;;;16.17;10.55;;;0.20;99.90;;;;;;6201384;22;20047;-94
2022/11/21 01:08:12;;;;;;;15.88;9.40;;;0.10;99.90;;;;;;6196599;22;20016;-94
2022/11/21 01:10:38;;;;;;;16.02;9.23;;;0.10;99.90;;;;;;6223873;22;20020;-95
2022/11/21 01:16:29;;;;;;;18.45;10.80;;;0.00;99.90;;;;;;6248732;22;20020;-94
2022/11/21 01:18:57;;;;;;;16.65;10.10;;;-0.10;99.90;;;;;;6173627;22;20098;-94
2022/11/21 01:21:30;;;;;;;18.10;10.57;;;-0.20;99.90;;;;;;6223248;22;20012;-94
2022/11/21 01:24:01;;;;;;;16.20;10.35;;;-0.20;99.90;;;;;;6224048;22;20043;-95
2022/11/21 01:26:49;;;;;;;19.90;10.75;;;-0.70;99.90;;;;;;6198814;22;20047;-95
2022/11/21 01:29:17;;;;;;;19.83;9.98;;;-0.30;99.90;;;;;;6223763;22;20107;-94
2022/11/21 01:32:02;;;;;;;19.42;10.15;;;-0.20;99.90;;;;;;6198713;22;20051;-94
2022/11/21 01:34:48;;;;;;;14.40;9.68;;;-0.30;99.90;;;;;;6197708;22;20012;-94
2022/11/21 01:41:18;;;;;;;14.43;8.80;;;-0.50;99.90;;;;;;6275013;22;20011;-94
2022/11/21 01:43:49;;;;;;;18.15;9.82;;;-0.50;99.90;;;;;;6225704;22;20019;-95
2022/11/21 01:49:38;;;;;;;17.65;9.95;;;-0.60;99.90;;;;;;6251076;22;20020;-95
2022/11/21 01:55:48;;;;;;;17.48;9.45;;;-0.60;99.90;;;;;;6249877;22;20045;-94
2022/11/21 01:58:17;;;;;;;17.60;9.75;;;-0.60;99.90;;;;;;6224673;22;20016;-96
2022/11/21 02:00:46;;;;;;;16.27;9.20;;;-0.60;99.90;;;;;;6200165;22;20438;-95
2022/11/21 02:03:19;;;;;;;18.73;9.43;;;-0.60;99.90;;;;;;6199823;22;20019;-95
2022/11/21 02:06:06;;;;;;;18.73;10.05;;;-0.70;99.90;;;;;;6224989;22;20055;-95
2022/11/21 02:08:54;;;;;;;14.10;8.43;;;-0.70;99.90;;;;;;6225392;22;20103;-93
2022/11/21 02:15:03;;;;;;;16.30;9.63;;;-0.70;99.90;;;;;;6277081;22;20057;-95
2022/11/21 02:17:49;;;;;;;16.08;9.60;;;-0.70;99.90;;;;;;6199510;22;20019;-94
2022/11/21 02:20:52;;;;;;;18.10;10.05;;;-0.70;99.90;;;;;;6224145;22;20442;-96
2022/11/21 02:23:29;;;;;;;22.30;11.02;;;-0.80;99.90;;;;;;6224357;22;20098;-96
2022/11/21 02:33:00;;;;;;;21.55;11.20;;;-0.60;99.90;;;;;;6276991;22;20114;-96
2022/11/21 02:35:56;;;;;;;20.33;11.25;;;-0.60;99.90;;;;;;6225273;22;20015;-94
2022/11/21 02:38:31;;;;;;;17.73;10.93;;;-0.60;99.90;;;;;;6224496;22;20012;-92
2022/11/21 02:44:43;;;;;;;17.35;10.93;;;-0.60;99.90;;;;;;6250232;22;20020;-95
2022/11/21 02:47:10;;;;;;;19.15;11.38;;;-0.60;99.90;;;;;;6224670;22;20339;-96
2022/11/21 02:50:08;;;;;;;17.70;11.00;;;-0.60;99.90;;;;;;6224383;22;20374;-96
2022/11/21 02:52:35;;;;;;;16.88;10.82;;;-0.60;99.90;;;;;;6224345;22;20020;-95
2022/11/21 02:55:20;;;;;;;17.15;10.95;;;-0.60;99.90;;;;;;6175281;22;20050;-94
2022/11/21 02:57:46;;;;;;;20.80;10.68;;;-0.70;99.90;;;;;;6224529;22;20012;-95
2022/11/21 03:00:51;;;;;;;22.73;12.55;;;-0.60;99.90;;;;;;6223960;22;20020;-95
2022/11/21 03:03:17;;;;;;;22.08;11.70;;;-0.70;99.90;;;;;;6224166;22;20095;-96
2022/11/21 03:09:00;;;;;;;18.73;10.32;;;-1.10;99.90;;;;;;6242523;22;20109;-95
2022/11/21 03:11:26;;;;;;;20.02;11.40;;;-0.80;99.90;;;;;;6168862;23;20019;-95
2022/11/21 03:13:54;;;;;;;20.45;11.38;;;-0.80;99.90;;;;;;6219555;23;20103;-96
2022/11/21 03:16:20;;;;;;;19.13;11.65;;;-0.80;99.90;;;;;;6194507;23;20327;-95
2022/11/21 03:19:24;;;;;;;21.92;11.15;;;-0.30;99.90;;;;;;6218630;23;20023;-96
2022/11/21 03:21:50;;;;;;;19.63;10.00;;;-0.80;99.90;;;;;;6219369;23;20024;-96
2022/11/21 03:24:37;;;;;;;22.70;11.25;;;-0.80;99.90;;;;;;6194706;23;20023;-95
2022/11/21 03:33:53;;;;;;;23.75;11.77;;;-0.80;99.90;;;;;;6245160;23;20025;-95
2022/11/21 03:36:59;;;;;;;23.15;12.27;;;-0.80;99.90;;;;;;6193791;23;20016;-95
2022/11/21 03:39:25;;;;;;;21.13;12.48;;;-0.80;99.90;;;;;;6218335;23;20020;-95
2022/11/21 03:42:12;;;;;;;23.85;12.95;;;-0.80;99.90;;;;;;6193593;23;20022;-94
2022/11/21 03:44:39;;;;;;;24.63;13.75;;;-0.80;99.90;;;;;;6219033;23;20438;-95
2022/11/21 03:47:06;;;;;;;22.92;12.57;;;-0.70;99.90;;;;;;6169007;23;20020;-95
2022/11/21 03:49:52;;;;;;;24.10;12.35;;;-0.70;99.90;;;;;;6193899;23;20587;-95
2022/11/21 03:52:39;;;;;;;22.00;12.75;;;-0.70;99.90;;;;;;6193407;23;20093;-95
2022/11/21 03:55:25;;;;;;;20.90;11.77;;;-0.70;99.90;;;;;;6219399;23;20086;-95
2022/11/21 03:57:53;;;;;;;21.50;11.75;;;-0.80;99.90;;;;;;6219303;23;20071;-95
2022/11/21 04:03:25;;;;;;;24.95;13.30;;;-0.60;99.90;;;;;;6244132;23;20032;-95
2022/11/21 04:05:51;;;;;;;26.70;14.88;;;-0.70;99.90;;;;;;6218072;23;20016;-95
2022/11/21 04:08:17;;;;;;;25.80;14.90;;;;;;;;;;6193355;23;20073;-94
2022/11/21 04:10:47;;;;;;;24.23;13.73;;;-0.50;99.90;;;;;;6193982;23;20024;-96
2022/11/21 04:13:14;;;;;;;27.92;14.13;;;-0.50;99.90;;;;;;6194248;23;20054;-94
2022/11/21 04:15:41;;;;;;;26.73;14.43;;;-0.40;99.90;;;;;;6219210;23;20016;-94
2022/11/21 04:18:28;;;;;;;25.67;13.98;;;-0.30;99.90;;;;;;6193889;23;20016;-94
2022/11/21 04:21:00;;;;;;;24.83;13.63;;;-0.40;99.90;;;;;;6217997;23;20016;-94
2022/11/21 04:27:20;;;;;;;23.98;14.25;;;-0.30;99.90;;;;;;6244066;23;20020;-95
2022/11/21 04:30:06;;;;;;;26.42;13.80;;;-0.30;99.90;;;;;;6218675;23;20020;-94
2022/11/21 04:32:32;;;;;;;27.52;13.40;;;-0.30;99.90;;;;;;6218042;23;20020;-96
2022/11/21 04:35:17;;;;;;;23.00;12.93;;;-0.30;99.90;;;;;;6194074;23;20020;-95
2022/11/21 04:37:43;;;;;;;22.20;12.88;;;-0.20;99.90;;;;;;6218985;23;20020;-94
2022/11/21 04:40:10;;;;;;;24.20;13.25;;;-0.30;99.90;;;;;;6218856;23;20020;-95
2022/11/21 04:43:15;;;;;;;25.58;13.68;;;-0.30;99.90;;;;;;6218503;23;20016;-95
2022/11/21 04:46:02;;;;;;;23.23;13.23;;;-0.20;99.90;;;;;;6218891;23;20016;-95
2022/11/21 04:48:32;;;;;;;26.83;13.95;;;-0.20;99.90;;;;;;6218755;23;20335;-95
2022/11/21 04:51:18;;;;;;;22.95;12.82;;;-0.20;99.90;;;;;;6192652;23;20027;-94
2022/11/21 04:53:45;;;;;;;22.98;13.98;;;-0.20;99.90;;;;;;6218214;23;20016;-95
2022/11/21 04:56:15;;;;;;;24.52;13.57;;;-0.30;99.90;;;;;;6218404;23;20027;-95
2022/11/21 05:02:44;;;;;;;23.83;13.13;;;-0.20;99.90;;;;;;6242594;23;20016;-94
2022/11/21 05:05:10;;;;;;;26.17;12.07;;;-0.30;99.90;;;;;;6217537;23;20012;-94
2022/11/21 05:07:37;;;;;;;24.55;13.05;;;-0.30;99.90;;;;;;6192908;23;20020;-94
2022/11/21 05:10:09;;;;;;;23.47;11.53;;;-0.40;99.90;;;;;;6192787;23;20047;-94
2022/11/21 05:19:01;;;;;;;23.23;12.02;;;-0.40;99.90;;;;;;6246935;23;20019;-95
2022/11/21 05:21:29;;;;;;;20.15;11.48;;;-0.50;99.90;;;;;;6220533;23;20016;-95
2022/11/21 05:23:55;;;;;;;24.27;13.32;;;-0.50;99.90;;;;;;6195183;23;20018;-96
2022/11/21 05:26:42;;;;;;;28.02;14.73;;;-0.50;99.90;;;;;;6219531;23;20016;-94
2022/11/21 05:29:27;;;;;;;24.17;13.48;;;-0.60;99.90;;;;;;6220165;23;20094;-96
2022/11/21 05:31:53;;;;;;;25.67;14.10;;;-0.60;99.90;;;;;;6194635;23;20028;-94
2022/11/21 05:34:24;;;;;;;22.77;13.75;;;-0.70;99.90;;;;;;6219115;23;20051;-94
2022/11/21 05:37:31;;;;;;;23.08;12.75;;;-0.70;99.90;;;;;;6220442;23;20070;-94
2022/11/21 05:39:58;;;;;;;23.15;12.15;;;-0.70;99.90;;;;;;6220224;23;20070;-95
2022/11/21 05:45:10;;;;;;;23.67;12.15;;;-0.80;99.90;;;;;;6229157;22;20019;-94
2022/11/21 05:47:37;;;;;;;27.40;14.82;;;-0.90;99.90;;;;;;6225340;22;20016;-96
2022/11/21 05:56:51;;;;;;;25.83;13.88;;;-0.90;99.90;;;;;;6250711;22;20097;-94
2022/11/21 05:59:38;;;;;;;23.65;12.52;;;-1.00;99.90;;;;;;6225010;22;20015;-94
2022/11/21 06:05:12;;;;;;;20.25;11.45;;;-1.00;99.90;;;;;;6253569;22;20020;-95
2022/11/21 06:07:50;;;;;;;;;;;;;;;;;;;;;
2022/11/21 06:10:31;;;;;;;;;;;;;;;;;;;;;
2022/11/21 06:13:39;;;;;;;;;;;;;;;;;;;;;
2022/11/21 06:17:02;;;;;;;24.02;12.80;;;-1.30;99.90;;;;;;6248347;22;20015;-95
2022/11/21 06:19:58;;;;;;;;;;;;;;;;;;;;;
2022/11/21 06:22:54;;;;;;;;;;;;;;;;;;;;;
2022/11/21 06:25:47;;;;;;;;;;;;;;;;;;;;;
2022/11/21 06:28:53;;;;;;;23.83;12.20;;;-1.50;99.90;;;;;;6190720;23;20032;-95
2022/11/21 06:31:49;;;;;;;;;;;;;;;;;;;;;
2022/11/21 06:35:06;;;;;;;;;;;;;;;;;;;;;
2022/11/21 06:38:12;;;;;;;;;;;;;;;;;;;;;
2022/11/21 06:41:38;;;;;;;;;;;;;;;;;;;;;
2022/11/21 06:44:55;;;;;;;;;;;;;;;;;;;;;
2022/11/21 06:48:07;;;;;;;;;;;;;;;;;;;;;
2022/11/21 06:51:02;;;;;;;;;;;;;;;;;;;;;
2022/11/21 06:53:55;;;;;;;;;;;;;;;;;;;;;
2022/11/21 07:00:47;;;;;;;;;;;;;;;;;;;;;
2022/11/21 07:04:11;;;;;;;34.03;15.68;;;-1.50;99.90;;;;;;6167597;23;20056;-94
2022/11/21 07:07:05;;;;;;;;;;;;;;;;;;;;;
2022/11/21 07:09:56;;;;;;;;;;;;;;;;;;;;;
2022/11/21 07:15:11;;;;;;;29.98;14.40;;;-1.40;99.90;;;;;;6250741;22;20024;-94
2022/11/21 07:17:39;;;;;;;27.55;14.98;;;-1.40;99.90;;;;;;6225787;22;20019;-95
2022/11/21 07:20:06;;;;;;;29.63;15.90;;;-1.30;99.90;;;;;;6199880;22;20012;-94
2022/11/21 07:22:56;;;;;;;26.27;14.68;;;-1.10;99.90;;;;;;6222779;22;20020;-94
2022/11/21 07:29:13;;;;;;;28.40;15.50;;;-1.20;99.90;;;;;;6249290;22;20054;-94
2022/11/21 07:31:38;;;;;;;30.83;15.82;;;-1.10;99.90;;;;;;6198628;22;20365;-95
2022/11/21 07:34:05;;;;;;;30.75;15.40;;;-1.00;99.90;;;;;;6197744;22;20034;-93
2022/11/21 07:37:10;;;;;;;29.45;17.13;;;-1.20;99.90;;;;;;6222617;22;20012;-94
2022/11/21 07:39:37;;;;;;;26.50;14.18;;;-1.00;99.90;;;;;;6222909;22;20012;-94
2022/11/21 07:42:22;;;;;;;29.33;15.15;;;-1.00;99.90;;;;;;6197756;22;20024;-93
2022/11/21 07:44:49;;;;;;;27.35;14.52;;;-1.10;99.90;;;;;;6198023;22;20027;-93
2022/11/21 07:47:33;;;;;;;27.80;14.48;;;-1.00;99.90;;;;;;6198375;22;20015;-93
2022/11/21 07:53:24;;;;;;;27.67;15.90;;;-0.90;99.90;;;;;;6249353;22;20106;-95
2022/11/21 07:56:10;;;;;;;32.75;15.73;;;-0.90;99.90;;;;;;6199260;22;20097;-95
2022/11/21 07:58:37;;;;;;;33.17;16.65;;;-0.60;99.90;;;;;;6198874;22;20108;-93
2022/11/21 08:04:27;;;;;;;34.33;18.00;;;-1.60;99.90;;;;;;6248907;22;20094;-95
2022/11/21 08:07:30;;;;;;;34.72;17.77;;;-1.40;99.90;;;;;;6223968;22;20019;-95
2022/11/21 08:10:35;;;;;;;;;;;;;;;;;;;;;
2022/11/21 08:14:18;;;;;;;;;;;;;;;;;;;;;
2022/11/21 08:20:16;;;;;;;;;;;;;;;;;;;;;
2022/11/21 08:23:08;;;;;;;;;;;;;;;;;;;;;
2022/11/21 08:26:15;;;;;;;27.70;14.73;;;0.00;99.90;;;;;;6185535;23;20038;-95
2022/11/21 08:29:29;;;;;;;;;;;;;;;;;;;;;
2022/11/21 08:33:05;;;;;;;;;;;;;;;;;;;;;
2022/11/21 08:35:51;;;;;;;;;;;;;;;;;;;;;
2022/11/21 08:39:06;;;;;;;;;;;;;;;;;;;;;
2022/11/21 08:42:39;;;;;;;;;;;;;;;;;;;;;
2022/11/21 08:45:31;;;;;;;;;;;;;;;;;;;;;
2022/11/21 08:48:41;;;;;;;33.10;16.30;;;0.30;99.90;;;;;;6166700;23;20028;-95
2022/11/21 08:51:43;;;;;;;27.77;15.27;;;0.30;99.90;;;;;;6186096;23;20056;-93
2022/11/21 08:54:38;;;;;;;;;;;;;;;;;;;;;
2022/11/21 08:57:34;;;;;;;;;;;;;;;;;;;;;
2022/11/21 09:03:22;;;;;;;;;;;;;;;;;;;;;
2022/11/21 09:06:19;;;;;;;;;;;;;;;;;;;;;
2022/11/21 09:09:08;;;;;;;;;;;;;;;;;;;;;
2022/11/21 09:19:08;;;;;;;;;;;;;;;;;;;;;
2022/11/21 09:25:36;;;;;;;;;;;;;;;;;;;;;
2022/11/21 09:28:56;;;;;;;;;;;;;;;;;;;;;
2022/11/21 09:31:44;;;;;;;;;;;;;;;;;;;;;
2022/11/21 09:34:32;;;;;;;;;;;;;;;;;;;;;
2022/11/21 09:37:18;;;;;;;;;;;;;;;;;;;;;
2022/11/21 09:40:35;;;;;;;;;;;;;;;;;;;;;
2022/11/21 09:43:35;;;;;;;;;;;;;;;;;;;;;
2022/11/21 09:50:19;;;;;;;;;;;;;;;;;;;;;
2022/11/21 09:53:49;;;;;;;;;;;;;;;;;;;;;
2022/11/21 10:00:22;;;;;;;;;;;;;;;;;;;;;
2022/11/21 10:03:43;;;;;;;;;;;;;;;;;;;;;
2022/11/21 10:07:01;;;;;;;;;;;;;;;;;;;;;
2022/11/21 10:10:11;;;;;;;;;;;;;;;;;;;;;
2022/11/21 10:13:18;;;;;;;;;;;;;;;;;;;;;
2022/11/21 10:16:34;;;;;;;;;;;;;;;;;;;;;
2022/11/21 10:20:21;;;;;;;;;;;;;;;;;;;;;
2022/11/21 10:23:09;;;;;;;;;;;;;;;;;;;;;
2022/11/21 10:26:19;;;;;;;;;;;;;;;;;;;;;
2022/11/21 10:33:05;;;;;;;;;;;;;;;;;;;;;
2022/11/21 10:36:38;;;;;;;;;;;;;;;;;;;;;
2022/11/21 10:39:58;;;;;;;;;;;;;;;;;;;;;
2022/11/21 10:50:37;;;;;;;;;;;;;;;;;;;;;
2022/11/21 10:56:41;;;;;;;27.08;16.20;;;2.00;99.90;;;;;;6244748;23;20026;-95
2022/11/21 11:00:07;;;;;;;;;;;;;;;;;;;;;
2022/11/21 11:03:06;;;;;;;;;;;;;;;;;;;;;
2022/11/21 11:06:07;;;;;;;;;;;;;;;;;;;;;
2022/11/21 11:09:25;;;;;;;;;;;;;;;;;;;;;
2022/11/21 11:16:28;;;;;;;;;;;;;;;;;;;;;
2022/11/21 11:19:22;;;;;;;;;;;;;;;;;;;;;
2022/11/21 11:22:21;;;;;;;;;;;;;;;;;;;;;
2022/11/21 11:24:52;;;;;;;19.25;11.80;;;2.20;99.90;;;;;;6218124;23;20438;-96
2022/11/21 11:27:46;;;;;;;19.48;12.63;;;2.50;99.90;;;;;;6195531;23;20052;-95
2022/11/21 11:30:20;;;;;;;17.65;10.70;;;2.70;99.90;;;;;;6170359;23;20045;-96
2022/11/21 11:33:24;;;;;;;20.80;11.75;;;2.90;99.90;;;;;;6193754;23;20016;-95
2022/11/21 11:36:32;;;;;;;17.73;10.85;;;3.10;99.90;;;;;;6191416;23;20026;-96
2022/11/21 11:38:59;;;;;;;19.67;10.77;;;3.60;99.90;;;;;;6192743;23;20375;-96
2022/11/21 11:47:57;;;;;;;18.63;10.30;;;3.80;99.90;;;;;;6221933;23;20031;-96
2022/11/21 11:54:43;;;;;;;15.55;10.02;;;3.70;99.90;;;;;;6245489;23;20031;-94
2022/11/21 11:57:19;;;;;;;16.02;10.38;;;3.70;99.90;;;;;;6193808;23;20016;-96
2022/11/21 12:00:24;;;;;;;15.93;9.48;;;3.70;99.90;;;;;;6194079;23;20077;-96
2022/11/21 12:03:11;;;;;;;15.98;9.82;;;3.60;99.90;;;;;;6193267;23;20055;-94
2022/11/21 12:06:03;;;;;;;14.68;8.45;;;3.60;99.90;;;;;;6192557;23;20016;-95
2022/11/21 12:08:50;;;;;;;14.95;9.00;;;3.60;99.90;;;;;;6192898;23;20020;-94
2022/11/21 12:18:18;;;;;;;11.85;7.40;;;3.70;99.90;;;;;;6217983;23;20031;-94
2022/11/21 12:27:58;;;;;;;12.60;8.60;;;3.70;99.90;;;;;;6218558;23;20069;-94
2022/11/21 12:30:28;;;;;;;13.10;8.13;;;3.70;99.90;;;;;;6168016;23;20012;-94
2022/11/21 12:33:24;;;;;;;18.38;8.77;;;3.60;99.90;;;;;;6192957;23;20565;-94
2022/11/21 12:36:17;;;;;;;14.35;9.25;;;3.60;99.90;;;;;;6173446;23;20447;-95
2022/11/21 12:39:23;;;;;;;17.40;9.60;;;3.50;99.90;;;;;;6193340;23;20020;-94
2022/11/21 12:45:20;;;;;;;15.70;8.88;;;3.60;99.90;;;;;;6218115;23;20020;-94
2022/11/21 12:58:01;;;;;;;15.63;9.95;;;3.30;99.90;;;;;;6216656;23;20039;-95
2022/11/21 13:01:06;;;;;;;15.63;9.98;;;3.20;99.90;;;;;;6193079;23;20024;-94
2022/11/21 13:04:07;;;;;;;17.25;10.32;;;3.20;99.90;;;;;;6191435;23;20030;-95
2022/11/21 13:06:54;;;;;;;17.35;10.95;;;3.20;99.90;;;;;;6191312;23;20439;-96
2022/11/21 13:10:12;;;;;;;;;;;;;;;;;;;;;
2022/11/21 13:13:37;;;;;;;;;;;;;;;;;;;;;
2022/11/21 13:17:13;;;;;;;;;;;;;;;;;;;;;
2022/11/21 13:20:27;;;;;;;;;;;;;;;;;;;;;
2022/11/21 13:27:03;;;;;;;;;;;;;;;;;;;;;
2022/11/21 13:36:41;;;;;;;;;;;;;;;;;;;;;
2022/11/21 13:40:18;;;;;;;;;;;;;;;;;;;;;
2022/11/21 13:47:37;;;;;;;14.65;8.50;;;3.20;99.90;;;;;;6217620;23;20024;-94
2022/11/21 13:51:13;;;;;;;;;;;;;;;;;;;;;
2022/11/21 14:54:13;;;;;;;17.50;10.52;;;3.30;99.90;;;;;;6276852;22;20078;-95
2022/11/21 14:56:44;;;;;;;18.55;11.25;;;2.90;99.90;;;;;;6223529;22;20030;-95
2022/11/21 14:59:37;;;;;;;16.02;10.25;;;3.30;99.90;;;;;;6223347;22;20029;-94
2022/11/21 15:02:13;;;;;;;20.83;11.52;;;3.40;99.90;;;;;;6223897;22;20019;-93
2022/11/21 15:04:43;;;;;;;20.45;10.73;;;3.30;99.90;;;;;;6223314;22;20019;-94
2022/11/21 15:07:53;;;;;;;22.42;11.65;;;3.30;99.90;;;;;;6208021;23;20020;-93
2022/11/21 15:10:23;;;;;;;21.75;11.52;;;3.30;99.90;;;;;;6164299;23;20020;-94
2022/11/21 15:19:40;;;;;;;21.48;12.00;;;3.20;99.90;;;;;;6217694;23;20017;-93
2022/11/21 15:22:23;;;;;;;19.25;10.88;;;3.20;99.90;;;;;;6193365;23;20032;-94
2022/11/21 15:25:29;;;;;;;23.83;12.02;;;2.60;99.90;;;;;;6194001;23;20027;-95
2022/11/21 15:28:01;;;;;;;23.85;12.35;;;3.30;99.90;;;;;;6192790;23;20012;-94
2022/11/21 15:34:04;;;;;;;26.55;14.38;;;3.30;99.90;;;;;;6218612;23;20099;-94
2022/11/21 15:37:03;;;;;;;24.27;12.70;;;3.30;99.90;;;;;;6193451;23;20020;-95
2022/11/21 15:39:30;;;;;;;21.23;12.48;;;3.30;99.90;;;;;;6187882;23;20021;-93
2022/11/21 15:42:33;;;;;;;19.48;11.75;;;3.20;99.90;;;;;;6188417;23;20390;-93
2022/11/21 15:45:19;;;;;;;20.90;12.55;;;3.30;99.90;;;;;;6193336;23;20474;-95
2022/11/21 15:48:23;;;;;;;25.27;13.93;;;3.10;99.90;;;;;;6193047;23;20017;-94
2022/11/21 15:50:51;;;;;;;21.70;12.43;;;3.30;99.90;;;;;;6190953;23;20027;-94
2022/11/21 16:04:32;;;;;;;30.05;15.93;;;3.30;99.90;;;;;;6238819;22;20056;-94
2022/11/21 16:06:59;;;;;;;32.35;15.88;;;3.30;99.90;;;;;;6197918;23;20016;-94
2022/11/21 16:13:06;;;;;;;34.28;15.50;;;3.30;99.90;;;;;;6244730;23;20030;-95
2022/11/21 16:16:13;;;;;;;;;;;;;;;;;;;;;
2022/11/21 16:22:19;;;;;;;;;;;;;;;;;;;;;
2022/11/21 16:25:37;;;;;;;;;;;;;;;;;;;;;
2022/11/21 16:38:27;;;;;;;40.58;17.00;;;2.90;99.90;;;;;;6077043;23;20022;-94
2022/11/21 16:41:58;;;;;;;;;;;;;;;;;;;;;
2022/11/21 16:45:16;;;;;;;52.35;20.42;;;2.80;99.90;;;;;;5981845;23;20024;-96
2022/11/21 16:52:17;;;;;;;;;;;;;;;;;;;;;
2022/11/21 16:55:04;;;;;;;;;;;;;;;;;;;;;
2022/11/21 17:01:52;;;;;;;;;;;;;;;;;;;;;
2022/11/21 17:04:38;;;;;;;;;;;;;;;;;;;;;
2022/11/21 17:07:34;;;;;;;;;;;;;;;;;;;;;
2022/11/21 17:10:14;;;;;;;49.85;18.25;;;;;;;;;;6085362;23;20030;-93
2022/11/21 17:13:27;;;;;;;56.70;17.75;;;2.60;99.90;;;;;;6096019;23;20022;-94
2022/11/21 17:16:50;;;;;;;;;;;;;;;;;;;;;
2022/11/21 17:25:43;;;;;;;86.93;21.10;;;2.20;99.90;;;;;;6071824;23;20056;-95
2022/11/21 17:28:11;;;;;;;67.60;19.55;;;2.60;99.90;;;;;;6135887;23;20052;-96
2022/11/21 17:34:03;;;;;;;72.30;21.67;;;2.70;99.90;;;;;;6244751;23;20020;-94
2022/11/21 17:36:33;;;;;;;65.75;20.63;;;2.70;99.90;;;;;;6219778;23;20078;-95
2022/11/21 17:39:23;;;;;;;;;;;;;;;;;;;;;
2022/11/21 17:42:31;;;;;;;67.88;19.77;;;2.80;99.90;;;;;;6196931;23;20012;-94
2022/11/21 17:45:52;;;;;;;;;;;;;;;;;;;;;
2022/11/21 17:48:50;;;;;;;;;;;;;;;;;;;;;
2022/11/21 17:52:05;;;;;;;;;;;;;;;;;;;;;
2022/11/21 17:58:11;;;;;;;;;;;;;;;;;;;;;
2022/11/21 18:01:39;;;;;;;;;;;;;;;;;;;;;
2022/11/21 18:04:40;;;;;;;;;;;;;;;;;;;;;
2022/11/21 18:11:46;;;;;;;;;;;;;;;;;;;;;
2022/11/21 18:14:49;;;;;;;117.40;25.92;;;2.80;99.90;;;;;;6217414;23;20585;-94
2022/11/21 18:17:44;;;;;;;;;;;;;;;;;;;;;
2022/11/21 18:21:03;;;;;;;;;;;;;;;;;;;;;
2022/11/21 18:24:52;;;;;;;;;;;;;;;;;;;;;
2022/11/21 18:28:00;;;;;;;;;;;;;;;;;;;;;
2022/11/21 18:31:22;;;;;;;;;;;;;;;;;;;;;
2022/11/21 18:34:16;;;;;;;116.63;26.48;;;2.50;99.90;;;;;;6095509;23;20117;-95
2022/11/21 18:36:42;;;;;;;103.47;26.65;;;3.00;99.90;;;;;;6096320;23;20184;-93
2022/11/21 18:39:26;;;;;;;94.88;25.75;;;2.90;99.90;;;;;;6182536;23;20020;-93
2022/11/21 18:41:55;;;;;;;81.38;25.08;;;3.00;99.90;;;;;;6192854;23;20020;-92
2022/11/21 18:44:42;;;;;;;105.57;27.23;;;3.00;99.90;;;;;;6218060;23;20016;-95
2022/11/21 18:47:45;;;;;;;79.28;25.30;;;3.10;99.90;;;;;;6194157;23;20450;-94
2022/11/21 18:50:15;;;;;;;89.53;28.17;;;3.00;99.90;;;;;;6192625;23;20016;-93
2022/11/21 18:52:41;;;;;;;92.65;28.65;;;3.80;99.90;;;;;;6193700;23;20020;-92
2022/11/21 18:55:45;;;;;;;93.55;28.27;;;3.10;99.90;;;;;;6218003;23;20454;-93
2022/11/21 18:58:36;;;;;;;85.00;26.88;;;3.10;99.90;;;;;;6192848;23;20084;-91
2022/11/21 19:01:05;;;;;;;69.50;25.17;;;3.10;99.90;;;;;;6217619;23;20020;-93
2022/11/21 19:03:33;;;;;;;78.50;26.55;;;3.20;99.90;;;;;;6218069;23;20075;-92
2022/11/21 19:10:10;;;;;;;;;;;;;;;;;;;;;
2022/11/21 19:17:15;;;;;;;76.82;24.10;;;3.20;99.90;;;;;;6196065;23;20016;-92
2022/11/21 19:26:55;;;;;;;;;;;;;;;;;;;;;
2022/11/21 19:30:21;;;;;;;;;;;;;;;;;;;;;
2022/11/21 19:33:22;;;;;;;;;;;;;;;;;;;;;
2022/11/21 19:36:45;;;;;;;;;;;;;;;;;;;;;
2022/11/21 19:40:01;;;;;;;;;;;;;;;;;;;;;
2022/11/21 19:42:58;;;;;;;74.68;24.00;;;3.10;99.90;;;;;;6067374;23;20018;-92
2022/11/21 19:45:48;;;;;;;;;;;;;;;;;;;;;
2022/11/21 19:48:50;;;;;;;;;;;;;;;;;;;;;
2022/11/21 19:52:06;;;;;;;;;;;;;;;;;;;;;
2022/11/21 19:55:28;;;;;;;;;;;;;;;;;;;;;
2022/11/21 20:02:02;;;;;;;;;;;;;;;;;;;;;
2022/11/21 20:05:05;;;;;;;;;;;;;;;;;;;;;
2022/11/21 20:08:01;;;;;;;;;;;;;;;;;;;;;
2022/11/21 20:11:15;;;;;;;;;;;;;;;;;;;;;
2022/11/21 20:14:53;;;;;;;;;;;;;;;;;;;;;
2022/11/21 20:18:11;;;;;;;;;;;;;;;;;;;;;
2022/11/21 20:21:31;;;;;;;;;;;;;;;;;;;;;
2022/11/21 20:24:36;;;;;;;;;;;;;;;;;;;;;
2022/11/21 20:27:34;;;;;;;;;;;;;;;;;;;;;
2022/11/21 20:31:08;;;;;;;45.10;18.88;;;3.20;99.90;;;;;;6173205;23;20016;-91
2022/11/21 20:34:49;;;;;;;;;;;;;;;;;;;;;
2022/11/21 20:38:08;;;;;;;41.45;18.83;;;3.30;99.90;;;;;;6237328;23;20587;-93
2022/11/21 20:45:35;;;;;;;;;;;;;;;;;;;;;
2022/11/21 20:48:24;;;;;;;;;;;;;;;;;;;;;
2022/11/21 20:51:11;;;;;;;;;;;;;;;;;;;;;
2022/11/21 20:54:26;;;;;;;;;;;;;;;;;;;;;
2022/11/21 20:58:05;;;;;;;;;;;;;;;;;;;;;
2022/11/21 21:03:28;;;;;;;;;;;;;;;;;;;;;
2022/11/21 21:06:38;;;;;;;37.72;17.27;;;3.10;99.90;;;;;;6118085;23;20073;-92
2022/11/21 21:09:52;;;;;;;;;;;;;;;;;;;;;
2022/11/21 21:16:15;;;;;;;;;;;;;;;;;;;;;
2022/11/21 21:18:47;;;;;;;31.90;15.13;;;2.90;99.90;;;;;;6092206;23;20021;-93
2022/11/21 21:21:16;;;;;;;25.98;14.23;;;4.20;99.90;;;;;;6113296;23;20018;-93
2022/11/21 21:23:46;;;;;;;31.83;15.68;;;2.80;99.90;;;;;;6080766;23;20022;-94
2022/11/21 21:26:19;;;;;;;35.03;16.15;;;2.90;99.90;;;;;;6186950;23;20624;-92
2022/11/21 21:28:46;;;;;;;30.33;15.98;;;2.80;99.90;;;;;;6212255;23;20025;-92
2022/11/21 21:31:18;;;;;;;34.97;16.75;;;2.70;99.90;;;;;;6187813;23;20055;-93
2022/11/21 21:33:45;;;;;;;35.80;15.43;;;2.70;99.90;;;;;;6212878;23;20016;-95
2022/11/21 21:36:13;;;;;;;32.00;15.55;;;2.60;99.90;;;;;;6212382;23;20124;-95
2022/11/21 21:38:59;;;;;;;33.25;15.80;;;2.50;99.90;;;;;;6187529;23;20070;-93
2022/11/21 21:41:28;;;;;;;33.92;15.25;;;2.60;99.90;;;;;;6212797;23;20027;-94
2022/11/21 21:47:20;;;;;;;31.02;15.50;;;2.50;99.90;;;;;;6212103;23;20047;-94
2022/11/21 21:50:07;;;;;;;34.65;15.43;;;2.50;99.90;;;;;;6162932;23;20059;-92
2022/11/21 21:59:56;;;;;;;32.92;14.88;;;2.40;99.90;;;;;;6214188;23;20021;-93
2022/11/21 22:02:43;;;;;;;28.20;15.23;;;2.40;99.90;;;;;;6189405;23;20027;-92
2022/11/21 22:05:09;;;;;;;30.85;14.20;;;2.40;99.90;;;;;;6194222;23;20019;-93
2022/11/21 22:22:06;;;;;;;25.92;14.02;;;2.30;99.90;;;;;;6244770;23;20031;-93
2022/11/21 22:24:31;;;;;;;28.15;13.93;;;2.30;99.90;;;;;;6170158;23;20103;-94
2022/11/21 22:27:16;;;;;;;30.10;15.82;;;2.30;99.90;;;;;;6219715;23;20447;-92
2022/11/21 22:29:42;;;;;;;26.33;13.95;;;2.30;99.90;;;;;;6193364;23;20111;-93
2022/11/21 22:35:35;;;;;;;28.27;14.63;;;2.20;99.90;;;;;;6244104;23;20276;-93
2022/11/21 22:38:01;;;;;;;33.05;13.68;;;2.30;99.90;;;;;;6194437;23;20078;-94
2022/11/21 22:40:47;;;;;;;26.88;13.80;;;2.30;99.90;;;;;;6145331;23;20016;-91
2022/11/21 22:43:32;;;;;;;28.88;14.55;;;2.30;99.90;;;;;;6169786;23;20024;-93
2022/11/21 22:45:59;;;;;;;29.27;15.05;;;2.20;99.90;;;;;;6169636;23;20059;-94
2022/11/21 22:48:26;;;;;;;28.90;14.43;;;2.20;99.90;;;;;;6218967;23;20027;-94
2022/11/21 22:54:34;;;;;;;30.08;14.07;;;2.20;99.90;;;;;;6246171;23;20139;-94
2022/11/21 22:57:01;;;;;;;22.85;12.88;;;2.30;99.90;;;;;;6169607;23;20079;-94
2022/11/21 22:59:50;;;;;;;26.52;13.43;;;2.20;99.90;;;;;;6219249;23;20048;-94
2022/11/21 23:02:38;;;;;;;29.95;13.63;;;2.20;99.90;;;;;;6219035;23;20016;-93
2022/11/21 23:05:04;;;;;;;25.83;12.95;;;2.20;99.90;;;;;;6218654;23;20020;-94
2022/11/21 23:08:08;;;;;;;29.90;14.15;;;2.20;99.90;;;;;;6193491;23;20090;-94
2022/11/21 23:14:46;;;;;;;28.20;13.25;;;2.20;99.90;;;;;;6243887;23;20035;-93
2022/11/21 23:17:33;;;;;;;25.83;13.15;;;2.20;99.90;;;;;;6193837;23;20101;-94
2022/11/21 23:20:01;;;;;;;29.45;14.80;;;2.20;99.90;;;;;;6193736;23;20051;-94
2022/11/21 23:22:48;;;;;;;27.10;13.55;;;2.10;99.90;;;;;;6193201;23;20012;-94
2022/11/21 23:28:40;;;;;;;26.10;13.90;;;2.00;99.90;;;;;;6243995;23;20023;-95
2022/11/21 23:35:07;;;;;;;26.73;13.82;;;2.20;99.90;;;;;;6244114;23;20031;-95
2022/11/21 23:37:54;;;;;;;25.67;13.70;;;2.20;99.90;;;;;;6218506;23;20028;-95
2022/11/21 23:44:02;;;;;;;24.00;12.50;;;2.10;99.90;;;;;;6244189;23;20465;-94
2022/11/21 23:46:29;;;;;;;26.17;13.10;;;2.10;99.90;;;;;;6170555;23;20027;-94
2022/11/21 23:52:36;;;;;;;21.60;11.88;;;2.20;99.90;;;;;;6242381;23;20020;-95
2022/11/21 23:55:21;;;;;;;23.77;12.15;;;2.10;99.90;;;;;;6191998;23;20055;-94
2022/11/21 23:58:07;;;;;;;23.63;12.52;;;2.00;99.90;;;;;;6192629;23;20075;-96
